Time;durP1;ratioP1;P1;durP2;ratioP2;P2;SDS_P1;SDS_P2;PMS_P1;PMS_P2;Temp;Humidity;BMP_temperature;BMP_pressure;BME280_temperature;BME280_humidity;BME280_pressure;Samples;Min_cycle;Max_cycle;Signal;HPM_P1;HPM_P2
2022/03/30 00:02:20;;;;;;;116.50;49.10;;;;;;;9.55;41.32;99523.91;117257;1184;23817;-60
2022/03/30 00:04:50;;;;;;;82.30;40.70;;;;;;;9.58;41.25;99521.04;117344;1185;21837;-49
2022/03/30 00:07:18;;;;;;;64.40;37.80;;;;;;;9.60;41.38;99522.24;117284;1189;21928;-48
2022/03/30 00:09:47;;;;;;;66.90;36.20;;;;;;;9.61;41.33;99519.94;117350;1184;21849;-60
2022/03/30 00:12:16;;;;;;;69.20;37.70;;;;;;;9.64;41.53;99518.13;117274;1185;23547;-59
2022/03/30 00:14:44;;;;;;;54.70;31.90;;;;;;;9.65;41.51;99518.79;117324;1185;22619;-59
2022/03/30 00:17:13;;;;;;;56.30;32.30;;;;;;;9.65;41.29;99515.98;117357;1185;22623;-49
2022/03/30 00:19:42;;;;;;;57.90;32.90;;;;;;;9.63;41.51;99512.52;117341;1185;21957;-49
2022/03/30 00:22:10;;;;;;;53.10;32.50;;;;;;;9.63;41.52;99510.44;117370;1185;24169;-59
2022/03/30 00:24:51;;;;;;;49.20;31.00;;;;;;;9.61;41.49;99509.95;117282;1186;22933;-60
2022/03/30 00:27:20;;;;;;;48.80;31.50;;;;;;;9.60;41.45;99505.41;117343;1186;22928;-49
2022/03/30 00:29:49;;;;;;;51.90;31.00;;;;;;;9.59;41.39;99505.62;117287;1185;22680;-49
2022/03/30 00:32:18;;;;;;;47.80;30.90;;;;;;;9.56;41.48;99507.61;117288;1186;22085;-60
2022/03/30 00:34:47;;;;;;;39.20;29.40;;;;;;;9.49;41.54;99509.16;117327;1185;22896;-59
2022/03/30 00:37:17;;;;;;;40.70;26.60;;;;;;;9.41;41.46;99512.83;117323;1186;23573;-48
2022/03/30 00:39:45;;;;;;;41.20;28.90;;;;;;;9.33;41.46;99513.34;117265;1186;23448;-49
2022/03/30 00:42:18;;;;;;;42.80;27.50;;;;;;;9.28;41.57;99514.84;117321;1186;21847;-59
2022/03/30 00:44:48;;;;;;;34.40;25.70;;;;;;;9.26;41.61;99514.92;117313;1186;21852;-60
2022/03/30 00:47:21;;;;;;;31.70;24.80;;;;;;;9.22;41.56;99514.46;117278;1185;23648;-49
2022/03/30 00:49:49;;;;;;;33.70;24.40;;;;;;;9.18;41.58;99508.23;117183;1186;21862;-49
2022/03/30 00:52:20;;;;;;;28.50;23.80;;;;;;;9.12;41.36;99505.55;117097;1187;23563;-50
2022/03/30 00:54:50;;;;;;;32.00;24.40;;;;;;;9.06;41.49;99505.49;117121;1183;22964;-49
2022/03/30 00:57:19;;;;;;;36.10;26.40;;;;;;;9.00;41.58;99500.20;117239;1182;22976;-49
2022/03/30 00:59:48;;;;;;;34.00;24.30;;;;;;;8.93;41.55;99500.33;117294;1186;23718;-60
2022/03/30 01:02:16;;;;;;;34.90;25.00;;;;;;;8.86;41.63;99499.76;117247;1186;23570;-59
2022/03/30 01:04:47;;;;;;;33.90;24.60;;;;;;;8.80;41.58;99497.63;117022;1186;23548;-60
2022/03/30 01:07:17;;;;;;;;;;;;;;;8.73;41.61;99495.29;117231;1186;23539;-59
2022/03/30 01:09:45;;;;;;;30.50;22.90;;;;;;;8.67;41.50;99494.54;117311;1185;21927;-48
2022/03/30 01:12:14;;;;;;;29.20;24.50;;;;;;;8.61;41.76;99497.44;117268;1185;23452;-60
2022/03/30 01:14:49;;;;;;;32.10;23.80;;;;;;;8.55;41.55;99494.22;117000;1186;23457;-49
2022/03/30 01:17:18;;;;;;;30.30;23.60;;;;;;;8.49;41.78;99496.23;117174;1186;23486;-59
2022/03/30 01:19:47;;;;;;;32.40;24.50;;;;;;;8.45;41.68;99495.06;117170;1186;23589;-49
2022/03/30 01:22:16;;;;;;;31.80;25.30;;;;;;;8.40;41.65;99490.95;117202;1186;21948;-49
2022/03/30 01:24:49;;;;;;;33.80;25.80;;;;;;;8.35;41.76;99491.75;117223;1186;21849;-60
2022/03/30 01:27:19;;;;;;;39.20;25.60;;;;;;;8.31;41.75;99493.55;117265;1185;24146;-48
2022/03/30 01:32:36;;;;;;;32.70;25.70;;;;;;;8.23;41.68;99486.17;117228;1182;24257;-50
2022/03/30 01:35:06;;;;;;;32.20;25.20;;;;;;;8.20;41.76;99489.70;117375;1186;21851;-59
2022/03/30 01:37:36;;;;;;;36.20;26.40;;;;;;;8.19;41.70;99487.30;117315;1185;21852;-60
2022/03/30 01:40:06;;;;;;;30.70;25.30;;;;;;;8.17;41.88;99485.75;117377;1184;21847;-60
2022/03/30 01:42:34;;;;;;;38.50;26.20;;;;;;;8.13;41.74;99484.61;117320;1185;21849;-57
2022/03/30 01:45:04;;;;;;;34.70;26.10;;;;;;;8.08;41.79;99485.90;117274;1184;24280;-59
2022/03/30 01:47:34;;;;;;;40.60;29.00;;;;;;;8.02;41.80;99484.24;117315;1186;21851;-59
2022/03/30 01:50:03;;;;;;;39.70;28.20;;;;;;;8.02;41.87;99485.46;117291;1182;22930;-58
2022/03/30 01:52:32;;;;;;;38.20;27.90;;;;;;;8.02;41.98;99481.80;117325;1185;21851;-58
2022/03/30 01:55:01;;;;;;;32.60;27.60;;;;;;;8.02;42.10;99483.55;117301;1184;24168;-47
2022/03/30 01:57:31;;;;;;;33.80;28.40;;;;;;;8.02;42.11;99483.02;117343;1185;21852;-47
2022/03/30 02:00:03;;;;;;;38.20;28.00;;;;;;;8.00;41.99;99486.54;117360;1185;21843;-58
2022/03/30 02:02:32;;;;;;;38.20;27.60;;;;;;;8.00;42.03;99487.60;117344;1184;23465;-58
2022/03/30 02:05:08;;;;;;;38.00;29.00;;;;;;;8.00;42.13;99487.25;117321;1186;21915;-58
2022/03/30 02:07:37;;;;;;;40.20;28.30;;;;;;;8.00;42.06;99487.41;117321;1186;23509;-47
2022/03/30 02:10:28;;;;;;;39.60;29.40;;;;;;;7.99;42.17;99487.95;117260;1185;21854;-58
2022/03/30 02:12:58;;;;;;;56.00;35.90;;;;;;;7.99;42.28;99486.39;117308;1186;24156;-58
2022/03/30 02:15:30;;;;;;;58.50;36.20;;;;;;;8.01;42.37;99488.27;117303;1186;24180;-47
2022/03/30 02:17:59;;;;;;;51.80;36.00;;;;;;;8.03;42.44;99487.55;117312;1185;22979;-58
2022/03/30 02:20:29;;;;;;;57.70;35.90;;;;;;;8.08;42.39;99487.66;117278;1186;23448;-47
2022/03/30 02:22:58;;;;;;;63.70;39.10;;;;;;;8.11;42.46;99489.52;117317;1186;21902;-59
2022/03/30 02:25:27;;;;;;;55.40;37.30;;;;;;;8.16;42.54;99488.04;117311;1186;21909;-59
2022/03/30 02:27:55;;;;;;;51.10;36.20;;;;;;;8.20;42.82;99488.31;117283;1185;23017;-59
2022/03/30 02:30:25;;;;;;;53.80;34.20;;;;;;;8.22;42.70;99489.86;117269;1186;23564;-59
2022/03/30 02:32:54;;;;;;;41.60;32.30;;;;;;;8.24;42.75;99490.53;117343;1185;22764;-48
2022/03/30 02:35:23;;;;;;;40.90;31.50;;;;;;;8.26;42.71;99494.16;117342;1185;23573;-59
2022/03/30 02:37:54;;;;;;;44.50;31.80;;;;;;;8.27;42.66;99496.42;117296;1185;21894;-59
2022/03/30 02:40:23;;;;;;;45.80;31.00;;;;;;;8.27;42.60;99494.85;117270;1186;23573;-59
2022/03/30 02:42:52;;;;;;;38.90;31.60;;;;;;;8.27;42.53;99493.11;116998;1188;23478;-59
2022/03/30 02:45:21;;;;;;;35.30;28.60;;;;;;;8.24;42.72;99495.24;117309;1185;21893;-58
2022/03/30 02:50:37;;;;;;;41.60;32.20;;;;;;;8.16;42.49;99503.77;117188;1186;23576;-48
2022/03/30 02:53:07;;;;;;;41.50;31.80;;;;;;;8.12;42.60;99502.97;117267;1186;23563;-58
2022/03/30 02:55:37;;;;;;;43.50;33.10;;;;;;;8.08;42.56;99506.17;117313;1185;21920;-58
2022/03/30 02:58:08;;;;;;;40.60;31.10;;;;;;;8.03;42.45;99508.34;117281;1185;22797;-48
2022/03/30 03:00:37;;;;;;;39.40;32.10;;;;;;;7.98;42.58;99512.61;117339;1185;22925;-59
2022/03/30 03:03:07;;;;;;;39.70;30.90;;;;;;;7.93;42.65;99509.91;117226;1186;24297;-58
2022/03/30 03:05:38;;;;;;;45.90;33.10;;;;;;;7.89;42.70;99510.13;117297;1185;21931;-47
2022/03/30 03:08:08;;;;;;;40.30;33.50;;;;;;;7.87;42.54;99511.75;117363;1185;21847;-58
2022/03/30 03:10:39;;;;;;;41.50;33.00;;;;;;;7.83;42.76;99512.66;117201;1186;21890;-57
2022/03/30 03:13:08;;;;;;;52.90;36.80;;;;;;;7.81;42.60;99514.09;117238;1186;22999;-48
2022/03/30 03:15:40;;;;;;;50.30;35.60;;;;;;;7.79;42.43;99513.59;117273;1186;21940;-59
2022/03/30 03:18:10;;;;;;;49.20;34.70;;;;;;;7.78;42.73;99512.03;117235;1185;21851;-58
2022/03/30 03:20:43;;;;;;;47.20;33.50;;;;;;;7.74;42.73;99514.88;117340;1186;24158;-47
2022/03/30 03:23:12;;;;;;;47.10;34.00;;;;;;;7.72;42.79;99512.65;117324;1185;24169;-47
2022/03/30 03:25:41;;;;;;;44.80;34.20;;;;;;;7.69;42.92;99509.90;117292;1186;21884;-59
2022/03/30 03:28:12;;;;;;;58.90;39.30;;;;;;;7.66;42.65;99512.55;117346;1186;23573;-58
2022/03/30 03:30:41;;;;;;;49.40;37.50;;;;;;;7.65;42.86;99508.91;117394;1186;21973;-47
2022/03/30 03:33:10;;;;;;;45.20;35.40;;;;;;;7.63;42.99;99507.89;117310;1185;22953;-52
2022/03/30 03:35:39;;;;;;;46.00;32.90;;;;;;;7.62;42.81;99513.50;117429;1184;21872;-58
2022/03/30 03:38:08;;;;;;;171.40;89.20;;;;;;;7.61;43.01;99533.23;117348;1186;23647;-59
2022/03/30 03:40:37;;;;;;;152.10;84.70;;;;;;;7.54;42.95;99534.17;117333;1185;24149;-58
2022/03/30 03:43:07;;;;;;;97.30;58.90;;;;;;;7.48;42.97;99535.52;117335;1186;21849;-58
2022/03/30 03:45:36;;;;;;;62.50;41.20;;;;;;;7.44;42.89;99536.43;117364;1180;23550;-47
2022/03/30 03:48:05;;;;;;;49.90;38.40;;;;;;;7.41;42.96;99539.60;117365;1184;21973;-47
2022/03/30 03:50:34;;;;;;;52.90;36.90;;;;;;;7.36;42.89;99535.48;117355;1185;21931;-47
2022/03/30 03:53:03;;;;;;;60.90;37.60;;;;;;;7.37;43.17;99528.65;117348;1185;23478;-59
2022/03/30 03:55:33;;;;;;;58.80;36.60;;;;;;;7.40;43.02;99531.05;117377;1185;23595;-60
2022/03/30 03:58:05;;;;;;;50.40;33.90;;;;;;;7.47;43.32;99531.52;117364;1185;23122;-47
2022/03/30 04:00:35;;;;;;;63.30;34.80;;;;;;;7.53;43.43;99527.58;117328;1182;24154;-47
2022/03/30 04:03:04;;;;;;;45.80;33.30;;;;;;;7.58;43.28;99529.79;117312;1185;24165;-60
2022/03/30 04:05:33;;;;;;;62.20;37.00;;;;;;;7.62;43.40;99531.65;117358;1185;22946;-54
2022/03/30 04:08:01;;;;;;;57.20;33.20;;;;;;;7.67;43.48;99535.42;117323;1185;24139;-60
2022/03/30 04:10:30;;;;;;;48.80;33.20;;;;;;;7.71;43.36;99539.39;117404;1185;23448;-59
2022/03/30 04:13:00;;;;;;;45.10;33.30;;;;;;;7.76;43.28;99546.64;117299;1182;23445;-59
2022/03/30 04:15:28;;;;;;;44.00;32.30;;;;;;;7.79;43.38;99546.94;117350;1185;23550;-48
2022/03/30 04:18:17;;;;;;;45.00;33.10;;;;;;;7.82;43.55;99542.89;117107;1186;23544;-58
2022/03/30 04:20:45;;;;;;;44.30;33.10;;;;;;;7.86;43.34;99542.33;117179;1186;21864;-47
2022/03/30 04:23:13;;;;;;;46.20;32.70;;;;;;;7.88;43.59;99542.45;117347;1185;23015;-59
2022/03/30 04:25:42;;;;;;;42.00;33.00;;;;;;;7.90;43.15;99539.99;117172;1188;21852;-47
2022/03/30 04:28:10;;;;;;;44.10;32.20;;;;;;;7.93;43.79;99542.59;117062;1182;23432;-59
2022/03/30 04:30:39;;;;;;;48.20;35.20;;;;;;;7.97;43.60;99540.05;117349;1185;23468;-59
2022/03/30 04:33:09;;;;;;;40.00;32.30;;;;;;;8.03;43.61;99540.84;117370;1185;21951;-59
2022/03/30 04:35:38;;;;;;;46.90;36.50;;;;;;;8.10;43.78;99548.42;117326;1185;23471;-51
2022/03/30 04:38:08;;;;;;;51.90;35.80;;;;;;;8.17;44.01;99553.55;117322;1185;23550;-58
2022/03/30 04:40:36;;;;;;;57.60;37.20;;;;;;;8.32;43.88;99556.98;117324;1185;21854;-49
2022/03/30 04:43:05;;;;;;;53.50;34.60;;;;;;;8.52;43.91;99556.34;117314;1185;23452;-48
2022/03/30 04:45:34;;;;;;;43.90;35.00;;;;;;;8.62;43.71;99558.98;117319;1185;23062;-48
2022/03/30 04:48:04;;;;;;;51.70;35.80;;;;;;;8.69;44.01;99563.05;117343;1185;23483;-48
2022/03/30 04:50:33;;;;;;;47.00;35.00;;;;;;;8.75;43.81;99568.02;117386;1186;21864;-48
2022/03/30 04:53:01;;;;;;;135.30;69.60;;;;;;;8.81;43.66;99576.99;117345;1185;23563;-48
2022/03/30 04:55:31;;;;;;;272.60;118.30;;;;;;;8.87;43.61;99580.05;117329;1185;23472;-49
2022/03/30 04:58:00;;;;;;;163.90;80.40;;;;;;;8.93;43.74;99574.86;117303;1185;23554;-48
2022/03/30 05:00:29;;;;;;;86.40;49.30;;;;;;;9.00;43.75;99574.74;117326;1185;23450;-58
2022/03/30 05:02:59;;;;;;;64.60;44.80;;;;;;;9.07;43.71;99574.77;117329;1186;21847;-48
2022/03/30 05:05:28;;;;;;;59.00;40.40;;;;;;;9.14;43.84;99576.05;117339;1186;23539;-59
2022/03/30 05:07:56;;;;;;;58.00;39.00;;;;;;;9.22;43.84;99573.61;117325;1185;23453;-49
2022/03/30 05:10:50;;;;;;;69.70;42.10;;;;;;;9.33;43.88;99574.27;117225;1186;23026;-48
2022/03/30 05:13:18;;;;;;;76.70;45.80;;;;;;;9.45;44.12;99572.99;117288;1185;24229;-49
2022/03/30 05:15:48;;;;;;;52.40;36.80;;;;;;;9.58;44.09;99565.86;117364;1185;23566;-59
2022/03/30 05:18:16;;;;;;;62.10;41.30;;;;;;;9.75;44.15;99565.52;117318;1185;21852;-59
2022/03/30 05:20:46;;;;;;;62.40;36.00;;;;;;;9.96;44.23;99564.36;117302;1185;23573;-48
2022/03/30 05:23:15;;;;;;;54.50;37.10;;;;;;;10.19;44.40;99556.11;117317;1185;22931;-48
2022/03/30 05:25:44;;;;;;;52.30;38.70;;;;;;;10.43;44.42;99559.05;117405;1185;21851;-58
2022/03/30 05:28:12;;;;;;;49.30;35.80;;;;;;;10.70;44.58;99559.61;117361;1185;21963;-48
2022/03/30 05:30:42;;;;;;;52.40;38.70;;;;;;;10.96;44.35;99559.11;117350;1185;24183;-49
2022/03/30 05:33:10;;;;;;;63.20;43.20;;;;;;;11.22;44.56;99559.98;117264;1186;24223;-49
2022/03/30 05:35:39;;;;;;;51.50;37.20;;;;;;;11.51;44.53;99555.84;117329;1185;23550;-48
2022/03/30 05:38:08;;;;;;;58.80;39.40;;;;;;;11.76;44.64;99552.27;117195;1186;23553;-59
2022/03/30 05:40:40;;;;;;;49.20;36.00;;;;;;;12.02;44.68;99553.96;117285;1185;21855;-48
2022/03/30 05:43:09;;;;;;;43.20;36.30;;;;;;;12.26;44.44;99552.35;117303;1185;21893;-49
2022/03/30 05:45:38;;;;;;;43.50;33.30;;;;;;;12.50;44.42;99549.45;117329;1182;21858;-60
2022/03/30 05:48:07;;;;;;;40.70;31.60;;;;;;;12.75;44.41;99546.48;117327;1186;23444;-59
2022/03/30 05:50:39;;;;;;;56.90;36.40;;;;;;;13.08;44.51;99544.10;117373;1184;23561;-59
2022/03/30 05:53:08;;;;;;;45.70;33.10;;;;;;;13.42;44.48;99544.98;117293;1185;21851;-60
2022/03/30 05:55:37;;;;;;;41.70;29.50;;;;;;;13.74;44.32;99540.09;117311;1185;21958;-60
2022/03/30 05:58:06;;;;;;;34.30;26.20;;;;;;;14.09;44.37;99541.40;117306;1185;21843;-60
2022/03/30 06:00:37;;;;;;;33.70;24.30;;;;;;;14.41;44.17;99537.83;117300;1182;24613;-59
2022/03/30 06:03:07;;;;;;;29.70;23.10;;;;;;;14.69;44.04;99536.47;117287;1185;24296;-60
2022/03/30 06:05:37;;;;;;;32.90;23.80;;;;;;;14.97;43.91;99529.79;117336;1185;21855;-50
2022/03/30 06:08:07;;;;;;;29.10;22.50;;;;;;;15.22;43.75;99530.80;117416;1185;22635;-59
2022/03/30 06:10:37;;;;;;;34.90;25.20;;;;;;;15.45;43.57;99530.86;117335;1185;21849;-50
2022/03/30 06:13:06;;;;;;;33.40;23.70;;;;;;;15.65;43.50;99527.98;117325;1185;23445;-51
2022/03/30 06:15:35;;;;;;;28.30;21.20;;;;;;;15.83;43.26;99524.84;117362;1185;22164;-60
2022/03/30 06:18:10;;;;;;;28.50;22.00;;;;;;;16.01;43.18;99523.31;117293;1185;23468;-61
2022/03/30 06:20:40;;;;;;;29.20;22.30;;;;;;;16.24;43.17;99519.73;117344;1185;21849;-62
2022/03/30 06:23:08;;;;;;;27.40;21.50;;;;;;;16.47;43.10;99516.27;117289;1184;23551;-61
2022/03/30 06:25:37;;;;;;;29.60;22.40;;;;;;;16.74;43.00;99517.20;117086;1187;24216;-53
2022/03/30 06:28:06;;;;;;;26.90;20.80;;;;;;;17.00;42.96;99519.60;117288;1181;21852;-60
2022/03/30 06:30:35;;;;;;;24.60;19.40;;;;;;;17.23;42.79;99520.02;117249;1185;22623;-59
2022/03/30 06:33:04;;;;;;;24.40;18.90;;;;;;;17.44;42.66;99520.30;117072;1188;22719;-51
2022/03/30 06:35:33;;;;;;;29.30;19.40;;;;;;;17.66;42.50;99520.19;117145;1186;22918;-60
2022/03/30 06:38:02;;;;;;;32.50;23.00;;;;;;;17.89;42.44;99525.11;117323;1185;21862;-60
2022/03/30 06:40:32;;;;;;;24.50;19.00;;;;;;;18.14;42.28;99525.50;117280;1183;22952;-60
2022/03/30 06:43:01;;;;;;;25.80;19.20;;;;;;;18.35;42.07;99526.79;117212;1186;22002;-60
2022/03/30 06:45:29;;;;;;;30.80;22.80;;;;;;;18.50;41.94;99525.36;117293;1185;21852;-60
2022/03/30 06:47:58;;;;;;;28.40;20.90;;;;;;;18.66;41.85;99524.80;117436;1185;21855;-51
2022/03/30 06:50:27;;;;;;;29.40;21.20;;;;;;;18.76;41.66;99525.61;117343;1185;21941;-52
2022/03/30 06:52:56;;;;;;;23.20;18.00;;;;;;;18.87;41.44;99520.36;117339;1185;21858;-61
2022/03/30 06:55:25;;;;;;;25.40;19.40;;;;;;;19.04;41.34;99516.00;117315;1185;22970;-60
2022/03/30 06:57:53;;;;;;;25.80;19.60;;;;;;;19.14;41.12;99520.14;117330;1185;21857;-60
2022/03/30 07:00:22;;;;;;;26.60;19.10;;;;;;;19.22;41.08;99519.83;117276;1186;23570;-60
2022/03/30 07:02:52;;;;;;;33.70;19.10;;;;;;;19.36;41.00;99517.59;117258;1185;22940;-61
2022/03/30 07:05:21;;;;;;;25.30;18.30;;;;;;;19.50;40.97;99516.15;117377;1185;21855;-60
2022/03/30 07:10:38;;;;;;;22.90;17.80;;;;;;;19.81;40.84;99510.98;117061;1188;23579;-60
2022/03/30 07:13:06;;;;;;;21.10;17.00;;;;;;;20.03;40.74;99519.59;117263;1185;21935;-60
2022/03/30 07:15:38;;;;;;;20.60;16.00;;;;;;;20.21;40.58;99517.54;117239;1185;23576;-60
2022/03/30 07:18:09;;;;;;;22.20;17.00;;;;;;;20.43;40.54;99516.80;117191;1186;22742;-52
2022/03/30 07:20:37;;;;;;;22.50;15.30;;;;;;;20.67;40.43;99513.91;117216;1185;23650;-60
2022/03/30 07:23:15;;;;;;;20.90;15.20;;;;;;;20.87;40.30;99513.65;117130;1186;23572;-60
2022/03/30 07:25:43;;;;;;;22.40;14.50;;;;;;;20.99;40.09;99511.75;117304;1185;23490;-53
2022/03/30 07:28:12;;;;;;;23.80;15.70;;;;;;;21.09;39.85;99513.05;117269;1185;23592;-53
2022/03/30 07:30:41;;;;;;;23.70;15.10;;;;;;;21.22;39.78;99514.12;117253;1185;21900;-53
2022/03/30 07:33:09;;;;;;;19.70;13.90;;;;;;;21.37;39.71;99514.10;117169;1185;24262;-55
2022/03/30 07:35:45;;;;;;;17.50;13.10;;;;;;;21.53;39.51;99511.40;117412;1185;24251;-60
2022/03/30 07:38:18;;;;;;;18.80;13.20;;;;;;;21.73;39.51;99509.98;117254;1185;24169;-60
2022/03/30 07:40:47;;;;;;;17.70;13.10;;;;;;;21.94;39.45;99507.96;117104;1185;23651;-60
2022/03/30 07:43:16;;;;;;;20.70;13.80;;;;;;;22.18;39.28;99509.73;117318;1185;23688;-60
2022/03/30 07:45:46;;;;;;;20.80;13.30;;;;;;;22.37;39.04;99507.38;117286;1185;21855;-61
2022/03/30 07:48:15;;;;;;;46.10;15.30;;;;;;;22.65;39.10;99511.25;117257;1185;23576;-52
2022/03/30 07:50:44;;;;;;;20.20;13.80;;;;;;;22.87;38.88;99512.45;117254;1185;21859;-52
2022/03/30 07:53:13;;;;;;;17.10;13.00;;;;;;;22.95;38.60;99510.05;117219;1185;23066;-59
2022/03/30 07:55:41;;;;;;;14.70;11.80;;;;;;;23.04;38.51;99508.41;117266;1186;22842;-53
2022/03/30 07:58:11;;;;;;;22.40;13.50;;;;;;;23.19;38.40;99506.58;117129;1186;23640;-59
2022/03/30 08:00:41;;;;;;;16.40;12.30;;;;;;;23.32;38.42;99507.17;117197;1183;22948;-53
2022/03/30 08:03:10;;;;;;;20.90;14.90;;;;;;;23.46;38.18;99511.41;117256;1186;22934;-57
2022/03/30 08:05:39;;;;;;;26.70;16.80;;;;;;;23.59;38.05;99516.45;117334;1185;22524;-60
2022/03/30 08:08:09;;;;;;;18.70;12.90;;;;;;;23.63;37.65;99518.52;117177;1186;23550;-61
2022/03/30 08:10:47;;;;;;;73.50;48.20;;;;;;;23.56;37.34;99522.24;117018;1187;23450;-53
2022/03/30 08:13:18;;;;;;;19.20;13.20;;;;;;;23.45;37.45;99518.97;117085;1187;22631;-60
2022/03/30 08:15:47;;;;;;;34.30;23.00;;;;;;;23.42;37.45;99515.98;117307;1185;24188;-60
2022/03/30 08:18:18;;;;;;;22.20;16.60;;;;;;;23.45;37.31;99514.39;117269;1186;21852;-60
2022/03/30 08:23:36;;;;;;;16.00;12.70;;;;;;;23.64;36.96;99506.97;117265;1186;23472;-52
2022/03/30 08:26:05;;;;;;;17.10;12.70;;;;;;;23.71;36.86;99503.20;117325;1176;21931;-53
2022/03/30 08:28:34;;;;;;;16.50;11.40;;;;;;;23.88;36.62;99501.42;117355;1185;23535;-60
2022/03/30 08:31:03;;;;;;;16.30;11.40;;;;;;;24.08;36.57;99500.73;117372;1185;22747;-60
2022/03/30 08:33:36;;;;;;;19.60;12.70;;;;;;;24.32;36.54;99499.61;117337;1185;23550;-53
2022/03/30 08:36:06;;;;;;;15.40;11.40;;;;;;;24.53;36.47;99500.25;117188;1186;21852;-60
2022/03/30 08:38:37;;;;;;;12.90;10.20;;;;;;;24.69;36.45;99496.19;117336;1184;21839;-60
2022/03/30 08:41:07;;;;;;;15.90;10.70;;;;;;;24.84;36.26;99489.75;117332;1185;23573;-60
2022/03/30 08:43:36;;;;;;;16.70;11.60;;;;;;;24.95;36.07;99492.00;117189;1182;21852;-60
2022/03/30 08:46:05;;;;;;;20.00;11.20;;;;;;;25.08;36.03;99491.41;117324;1186;23540;-59
2022/03/30 08:48:34;;;;;;;19.10;11.20;;;;;;;25.23;36.04;99483.14;117149;1188;22705;-59
2022/03/30 08:51:02;;;;;;;16.00;11.10;;;;;;;25.37;35.97;99481.35;117230;1186;21853;-61
2022/03/30 08:53:31;;;;;;;15.00;11.10;;;;;;;25.42;35.70;99481.27;117207;1182;21910;-60
2022/03/30 08:56:00;;;;;;;12.70;9.60;;;;;;;25.44;35.39;99476.64;117382;1184;22928;-54
2022/03/30 08:58:29;;;;;;;15.30;10.20;;;;;;;25.48;35.33;99472.91;117252;1176;22911;-61
2022/03/30 09:01:09;;;;;;;14.10;10.90;;;;;;;25.60;35.09;99465.20;117293;1185;23579;-55
2022/03/30 09:03:55;;;;;;;12.60;10.30;;;;;;;25.71;35.05;99464.36;117347;1185;23445;-53
2022/03/30 09:06:51;;;;;;;12.70;9.60;;;;;;;25.80;34.99;99465.30;117290;1184;21849;-53
2022/03/30 09:09:39;;;;;;;15.70;10.20;;;;;;;25.83;34.96;99463.21;117335;1185;21856;-54
2022/03/30 09:12:09;;;;;;;17.10;9.90;;;;;;;25.88;34.81;99464.27;117253;1185;23573;-60
2022/03/30 09:14:39;;;;;;;14.50;9.70;;;;;;;25.93;34.48;99461.25;117323;1185;22823;-60
2022/03/30 09:17:08;;;;;;;14.60;10.10;;;;;;;25.98;34.19;99458.09;117303;1185;22830;-60
2022/03/30 09:19:38;;;;;;;13.20;9.40;;;;;;;26.04;34.22;99456.91;117290;1185;22925;-60
2022/03/30 09:22:08;;;;;;;19.80;10.40;;;;;;;26.11;34.21;99454.05;117316;1184;24277;-60
2022/03/30 09:24:39;;;;;;;13.90;10.30;;;;;;;26.13;34.02;99450.16;117232;1185;22918;-60
2022/03/30 09:27:09;;;;;;;15.90;10.20;;;;;;;26.06;33.98;99446.09;117340;1185;21954;-55
2022/03/30 09:29:38;;;;;;;15.80;9.80;;;;;;;26.17;33.82;99446.40;117327;1182;24152;-60
2022/03/30 09:32:27;;;;;;;13.10;10.10;;;;;;;26.24;32.97;99441.02;117328;1185;21896;-60
2022/03/30 09:34:56;;;;;;;14.90;10.20;;;;;;;26.29;33.18;99439.86;117363;1185;23631;-53
2022/03/30 09:37:25;;;;;;;18.70;10.50;;;;;;;26.33;33.04;99437.77;117282;1185;23619;-53
2022/03/30 09:39:54;;;;;;;12.20;9.30;;;;;;;26.38;32.69;99431.50;117250;1185;22646;-53
2022/03/30 09:42:27;;;;;;;14.30;9.20;;;;;;;26.43;32.83;99428.30;117006;1188;23557;-59
2022/03/30 09:44:56;;;;;;;17.50;10.80;;;;;;;26.51;32.95;99429.73;117235;1186;21849;-61
2022/03/30 09:47:36;;;;;;;15.10;9.70;;;;;;;26.60;33.00;99426.77;117262;1185;23570;-53
2022/03/30 09:50:07;;;;;;;13.80;10.00;;;;;;;26.70;32.83;99426.87;117252;1185;22918;-53
2022/03/30 09:52:37;;;;;;;13.50;10.00;;;;;;;26.79;32.36;99428.17;117206;1183;23210;-60
2022/03/30 09:55:06;;;;;;;13.30;9.50;;;;;;;26.85;32.51;99422.24;117085;1188;22533;-53
2022/03/30 09:57:42;;;;;;;12.90;9.20;;;;;;;26.96;32.52;99417.77;117228;1186;21862;-60
2022/03/30 10:00:18;;;;;;;14.70;8.60;;;;;;;27.04;32.15;99416.48;117336;1185;23663;-60
2022/03/30 10:02:54;;;;;;;13.90;9.40;;;;;;;27.09;31.90;99415.63;117383;1185;22825;-54
2022/03/30 10:05:25;;;;;;;11.80;9.20;;;;;;;27.20;32.03;99412.42;117173;1186;23616;-54
2022/03/30 10:07:55;;;;;;;12.90;9.60;;;;;;;27.34;31.79;99408.18;117185;1186;22989;-60
2022/03/30 10:10:24;;;;;;;13.00;10.00;;;;;;;27.45;32.06;99410.67;117468;1186;22224;-60
2022/03/30 10:12:52;;;;;;;15.50;10.40;;;;;;;27.60;31.74;99409.25;116992;1188;23596;-61
2022/03/30 10:15:21;;;;;;;15.70;11.10;;;;;;;27.69;31.46;99407.82;117228;1186;23598;-59
2022/03/30 10:17:50;;;;;;;17.90;10.70;;;;;;;27.76;31.15;99408.08;117176;1187;24140;-54
2022/03/30 10:20:20;;;;;;;14.10;10.10;;;;;;;27.75;30.89;99406.14;117407;1185;22925;-55
2022/03/30 10:22:50;;;;;;;13.90;10.10;;;;;;;27.68;31.03;99406.98;117149;1188;21867;-54
2022/03/30 10:25:33;;;;;;;13.70;9.90;;;;;;;27.68;31.36;99401.39;117384;1185;22513;-59
2022/03/30 10:28:20;;;;;;;12.70;9.70;;;;;;;27.74;31.39;99397.54;117261;1186;23554;-54
2022/03/30 10:30:56;;;;;;;16.30;10.50;;;;;;;27.76;30.67;99397.06;117361;1185;23551;-60
2022/03/30 10:33:32;;;;;;;14.00;9.90;;;;;;;27.68;30.72;99396.20;117159;1187;21865;-53
2022/03/30 10:36:28;;;;;;;14.60;10.50;;;;;;;27.56;30.59;99397.91;117130;1186;22999;-57
2022/03/30 10:39:15;;;;;;;12.20;9.40;;;;;;;27.40;30.41;99398.98;117338;1185;23567;-56
2022/03/30 10:42:08;;;;;;;14.20;10.60;;;;;;;27.20;30.37;99397.24;117322;1183;23526;-54
2022/03/30 10:45:01;;;;;;;17.30;10.50;;;;;;;27.07;30.16;99401.60;117292;1186;23550;-54
2022/03/30 10:47:30;;;;;;;14.60;10.30;;;;;;;27.05;30.01;99396.02;117128;1187;23561;-60
2022/03/30 10:50:00;;;;;;;19.30;10.80;;;;;;;27.09;29.49;99392.42;117217;1186;24242;-61
2022/03/30 10:52:40;;;;;;;14.40;9.90;;;;;;;27.10;29.84;99391.96;117349;1185;21893;-60
2022/03/30 10:55:12;;;;;;;15.70;9.90;;;;;;;27.15;29.97;99386.42;117284;1187;21852;-54
2022/03/30 10:57:43;;;;;;;11.20;9.10;;;;;;;27.15;29.57;99380.45;117202;1186;23833;-60
2022/03/30 11:00:19;;;;;;;13.10;10.40;;;;;;;27.11;29.46;99383.57;117266;1185;23563;-60
2022/03/30 11:02:47;;;;;;;18.40;10.60;;;;;;;27.10;29.57;99374.65;117282;1182;23696;-54
2022/03/30 11:05:30;;;;;;;13.80;9.10;;;;;;;27.11;29.59;99368.48;117297;1185;23619;-61
2022/03/30 11:08:00;;;;;;;15.90;10.00;;;;;;;27.31;29.20;99370.29;117336;1185;23465;-54
2022/03/30 11:10:29;;;;;;;14.60;10.10;;;;;;;27.54;29.09;99366.20;117076;1188;22938;-59
2022/03/30 11:13:11;;;;;;;15.60;10.00;;;;;;;27.74;29.03;99359.80;117157;1186;24308;-54
2022/03/30 11:16:00;;;;;;;11.60;9.40;;;;;;;27.91;29.40;99354.64;117276;1185;23878;-60
2022/03/30 11:18:30;;;;;;;15.50;10.60;;;;;;;28.05;29.32;99353.05;117347;1185;23931;-55
2022/03/30 11:21:11;;;;;;;14.10;10.60;;;;;;;28.12;29.07;99352.89;117362;1186;21853;-54
2022/03/30 11:23:59;;;;;;;12.20;10.00;;;;;;;28.28;29.28;99344.41;117276;1185;21891;-54
2022/03/30 11:27:07;;;;;;;18.40;10.80;;;;;;;28.38;29.41;99337.95;117209;1184;22800;-54
2022/03/30 11:29:47;;;;;;;12.40;8.70;;;;;;;28.44;29.10;99335.05;117344;1185;23544;-54
2022/03/30 11:32:37;;;;;;;14.60;9.20;;;;;;;28.39;28.97;99330.29;117282;1185;21944;-54
2022/03/30 11:35:08;;;;;;;14.30;9.30;;;;;;;28.27;28.69;99331.00;117289;1185;21850;-54
2022/03/30 11:37:43;;;;;;;9.60;8.40;;;;;;;28.24;28.73;99332.21;117381;1185;22983;-54
2022/03/30 11:40:13;;;;;;;12.90;9.20;;;;;;;28.20;28.64;99329.34;117328;1185;21853;-54
2022/03/30 11:42:49;;;;;;;10.80;8.90;;;;;;;28.24;27.93;99331.11;117331;1184;22878;-54
2022/03/30 11:45:20;;;;;;;15.40;9.70;;;;;;;28.34;28.42;99329.32;117271;1185;22687;-60